Time;durP1;ratioP1;P1;durP2;ratioP2;P2;SDS_P1;SDS_P2;PMS_P1;PMS_P2;Temp;Humidity;BMP_temperature;BMP_pressure;BME280_temperature;BME280_humidity;BME280_pressure;Samples;Min_cycle;Max_cycle;Signal;HPM_P1;HPM_P2
2022/08/27 00:01:23;;;;;;;;;;;;;;;29.21;41.31;96325.84;5074992;28;19909;-29
2022/08/27 00:03:49;;;;;;;;;;;;;;;29.20;41.13;96321.53;5075106;28;20369;-28
2022/08/27 00:06:15;;;;;;;;;;;;;;;29.22;41.16;96324.53;5074778;28;19908;-29
2022/08/27 00:08:44;;;;;;;;;;;;;;;29.24;41.23;96316.34;5074905;28;19909;-29
2022/08/27 00:11:10;;;;;;;;;;;;;;;29.18;41.21;96319.31;5074669;28;20255;-28
2022/08/27 00:13:35;;;;;;;;;;;;;;;29.17;41.16;96317.84;5074681;28;19953;-28
2022/08/27 00:16:02;;;;;;;;;;;;;;;29.12;41.29;96307.56;5074646;28;20258;-28
2022/08/27 00:18:27;;;;;;;;;;;;;;;29.12;41.34;96312.41;5074634;28;20369;-28
2022/08/27 00:20:52;;;;;;;;;;;;;;;29.16;41.40;96310.75;5074773;28;19912;-28
2022/08/27 00:23:18;;;;;;;;;;;;;;;29.13;41.41;96308.31;5074702;28;19908;-28
2022/08/27 00:25:44;;;;;;;;;;;;;;;29.11;41.35;96300.50;5074708;28;19913;-28
2022/08/27 00:28:09;;;;;;;;;;;;;;;29.16;41.27;96307.22;5074411;28;19911;-28
2022/08/27 00:30:35;;;;;;;;;;;;;;;29.12;41.35;96304.78;5074428;28;19931;-29
2022/08/27 00:33:00;;;;;;;;;;;;;;;29.08;41.30;96304.38;5074598;28;20262;-28
2022/08/27 00:35:28;;;;;;;;;;;;;;;29.10;41.46;96301.78;5074626;28;20487;-28
2022/08/27 00:37:53;;;;;;;;;;;;;;;29.13;41.37;96305.53;5074052;28;19916;-29
2022/08/27 00:40:20;;;;;;;;;;;;;;;29.11;41.59;96302.53;5074207;28;19909;-28
2022/08/27 00:42:45;;;;;;;;;;;;;;;29.14;41.39;96307.78;5074140;28;19966;-29
2022/08/27 00:45:11;;;;;;;;;;;;;;;29.12;41.43;96306.81;5073977;28;19916;-29
2022/08/27 00:47:39;;;;;;;;;;;;;;;29.10;41.63;96306.63;5074230;28;20365;-29
2022/08/27 00:50:08;;;;;;;;;;;;;;;29.06;41.48;96311.81;5074080;28;19909;-29
2022/08/27 00:52:43;;;;;;;;;;;;;;;29.08;41.47;96309.97;5073920;28;19912;-29
2022/08/27 00:55:10;;;;;;;;;;;;;;;29.10;41.49;96312.22;5074209;28;19915;-28
2022/08/27 00:57:37;;;;;;;;;;;;;;;29.08;41.51;96300.84;5073639;28;19919;-30
2022/08/27 01:00:05;;;;;;;;;;;;;;;29.05;41.55;96299.19;5073991;28;20261;-29
2022/08/27 01:02:30;;;;;;;;;;;;;;;29.07;41.47;96302.13;5073892;28;19908;-28
2022/08/27 01:05:01;;;;;;;;;;;;;;;29.06;41.51;96301.41;5073905;28;19915;-28
2022/08/27 01:07:28;;;;;;;;;;;;;;;29.03;41.75;96310.16;5073867;28;19989;-28
2022/08/27 01:09:54;;;;;;;;;;;;;;;29.09;41.70;96307.91;5074110;28;20012;-28
2022/08/27 01:12:19;;;;;;;;;;;;;;;29.10;41.51;96312.22;5074076;28;19951;-28
2022/08/27 01:14:45;;;;;;;;;;;;;;;28.96;41.88;96308.81;5073777;28;19916;-28
2022/08/27 01:17:12;;;;;;;;;;;;;;;29.02;41.79;96312.19;5073574;28;20358;-28
2022/08/27 01:19:44;;;;;;;;;;;;;;;29.03;41.88;96313.69;5073607;28;19959;-29
2022/08/27 01:22:23;;;;;;;;;;;;;;;29.00;41.91;96308.47;5073704;28;19909;-28
2022/08/27 01:24:50;;;;;;;;;;;;;;;29.08;41.73;96309.97;5073772;28;19908;-31
2022/08/27 01:27:18;;;;;;;;;;;;;;;29.13;41.53;96309.06;5073667;28;19904;-30
2022/08/27 01:29:44;;;;;;;;;;;;;;;29.10;41.75;96307.38;5073525;28;19908;-29
2022/08/27 01:32:09;;;;;;;;;;;;;;;29.18;41.83;96312.97;5073652;28;19916;-29
2022/08/27 01:34:35;;;;;;;;;;;;;;;29.20;41.54;96315.97;5073650;28;19961;-28
2022/08/27 01:37:00;;;;;;;;;;;;;;;29.14;41.77;96316.16;5073775;28;19912;-28
2022/08/27 01:39:26;;;;;;;;;;;;;;;29.00;41.92;96314.78;5073562;28;20034;-29
2022/08/27 01:41:51;;;;;;;;;;;;;;;28.95;42.24;96316.44;5073667;28;19946;-28
2022/08/27 01:44:16;;;;;;;;;;;;;;;29.01;42.04;96316.28;5073359;28;19923;-28
2022/08/27 01:46:42;;;;;;;;;;;;;;;28.98;42.14;96316.63;5073287;28;19909;-28
2022/08/27 01:49:08;;;;;;;;;;;;;;;29.07;41.94;96313.31;5073373;28;19931;-29
2022/08/27 01:51:34;;;;;;;;;;;;;;;29.02;42.15;96312.19;5073238;28;20290;-28
2022/08/27 01:54:00;;;;;;;;;;;;;;;28.98;42.28;96316.63;5073371;28;19912;-29
2022/08/27 01:56:25;;;;;;;;;;;;;;;29.01;42.44;96316.28;5073600;28;20337;-29
2022/08/27 01:58:51;;;;;;;;;;;;;;;29.02;42.36;96319.81;5073471;28;20011;-29
2022/08/27 02:01:16;;;;;;;;;;;;;;;28.97;42.53;96315.13;5073288;28;19970;-28
2022/08/27 02:03:41;;;;;;;;;;;;;;;28.94;42.71;96319.78;5073334;28;20407;-29
2022/08/27 02:06:08;;;;;;;;;;;;;;;29.02;42.68;96326.16;5073308;28;19999;-28
2022/08/27 02:08:34;;;;;;;;;;;;;;;28.99;42.71;96320.94;5073335;28;19912;-29
2022/08/27 02:10:59;;;;;;;;;;;;;;;28.93;42.73;96321.81;5058307;28;19954;-28
2022/08/27 02:13:25;;;;;;;;;;;;;;;29.00;42.74;96323.16;5077012;28;19908;-28
2022/08/27 02:15:50;;;;;;;;;;;;;;;28.94;43.05;96328.91;5077058;28;19912;-30
2022/08/27 02:18:16;;;;;;;;;;;;;;;29.02;42.98;96325.41;5076845;28;20017;-29
2022/08/27 02:20:43;;;;;;;;;;;;;;;28.94;43.02;96319.78;5077246;28;19915;-28
2022/08/27 02:23:08;;;;;;;;;;;;;;;29.02;42.99;96322.63;5076747;28;19908;-28
2022/08/27 02:25:33;;;;;;;;;;;;;;;28.97;43.10;96331.88;5077022;28;19919;-28
2022/08/27 02:27:59;;;;;;;;;;;;;;;28.97;43.13;96315.13;5076938;28;19943;-28
2022/08/27 02:30:26;;;;;;;;;;;;;;;29.00;43.13;96320.38;5076711;28;19908;-28
2022/08/27 02:32:51;;;;;;;;;;;;;;;28.94;43.05;96316.97;5076772;28;20328;-28
2022/08/27 02:35:18;;;;;;;;;;;;;;;29.08;42.90;96323.94;5076563;28;19923;-28
2022/08/27 02:37:44;;;;;;;;;;;;;;;29.07;43.19;96321.69;5076563;28;19916;-28
2022/08/27 02:40:11;;;;;;;;;;;;;;;28.92;43.72;96330.78;5076400;28;19978;-29
2022/08/27 02:42:36;;;;;;;;;;;;;;;29.06;43.35;96318.16;5076322;28;19916;-29
2022/08/27 02:45:03;;;;;;;;;;;;;;;28.97;43.61;96332.63;5076438;28;19962;-28
2022/08/27 02:47:29;;;;;;;;;;;;;;;28.94;43.74;96325.38;5076589;28;20259;-28
2022/08/27 02:49:54;;;;;;;;;;;;;;;29.05;43.25;96327.84;5076463;28;19938;-29
2022/08/27 02:52:19;;;;;;;;;;;;;;;29.07;43.67;96316.84;5076496;28;19916;-28
2022/08/27 02:54:45;;;;;;;;;;;;;;;28.95;43.68;96324.81;5058493;28;19909;-28
2022/08/27 02:57:11;;;;;;;;;;;;;;;29.07;43.36;96324.47;5058597;28;19912;-29
2022/08/27 02:59:36;;;;;;;;;;;;;;;28.94;43.62;96320.53;5076174;28;20255;-28
2022/08/27 03:02:01;;;;;;;;;;;;;;;29.04;43.93;96317.97;5058286;28;20277;-28
2022/08/27 03:04:28;;;;;;;;;;;;;;;28.96;43.89;96314.41;5076022;28;19915;-28
2022/08/27 03:06:53;;;;;;;;;;;;;;;29.07;43.90;96313.31;5076016;28;20421;-29
2022/08/27 03:09:20;;;;;;;;;;;;;;;29.03;43.81;96319.28;5075954;28;19948;-28
2022/08/27 03:11:45;;;;;;;;;;;;;;;29.09;43.87;96311.47;5075976;28;19909;-29
2022/08/27 03:14:11;;;;;;;;;;;;;;;29.02;43.99;96314.25;5075972;28;20300;-29
2022/08/27 03:16:37;;;;;;;;;;;;;;;29.01;43.92;96313.50;5058159;28;19914;-28
2022/08/27 03:19:05;;;;;;;;;;;;;;;29.03;44.08;96310.91;5075983;28;19912;-29
2022/08/27 03:21:30;;;;;;;;;;;;;;;29.09;43.92;96319.09;5075703;28;19908;-29
2022/08/27 03:23:55;;;;;;;;;;;;;;;29.04;44.00;96315.19;5075739;28;19915;-28
2022/08/27 03:26:21;;;;;;;;;;;;;;;29.12;43.96;96315.94;5075651;28;19962;-28
2022/08/27 03:28:46;;;;;;;;;;;;;;;29.03;44.09;96318.53;5075608;28;20321;-28
2022/08/27 03:31:14;;;;;;;;;;;;;;;29.12;44.47;96321.53;5075735;28;20275;-28
2022/08/27 03:33:39;;;;;;;;;;;;;;;29.04;44.37;96328.41;5075460;28;19915;-29
2022/08/27 03:36:06;;;;;;;;;;;;;;;29.05;44.53;96327.09;5075520;28;19912;-28
2022/08/27 03:38:31;;;;;;;;;;;;;;;29.09;44.71;96322.63;5075383;28;19923;-28
2022/08/27 03:40:57;;;;;;;;;;;;;;;29.06;44.43;96320.94;5075862;28;19908;-29
2022/08/27 03:43:22;;;;;;;;;;;;;;;29.12;44.40;96312.41;5075229;28;19966;-28
2022/08/27 03:45:48;;;;;;;;;;;;;;;29.16;44.34;96307.22;5075466;28;19915;-28
2022/08/27 03:48:14;;;;;;;;;;;;;;;29.04;44.64;96309.59;5075168;28;19912;-28
2022/08/27 03:50:41;;;;;;;;;;;;;;;29.13;44.80;96311.09;5075423;28;19958;-28
2022/08/27 03:53:06;;;;;;;;;;;;;;;29.11;44.36;96313.72;5075046;28;19908;-28
2022/08/27 03:55:32;;;;;;;;;;;;;;;29.06;44.71;96303.44;5075134;28;19916;-28
2022/08/27 03:57:57;;;;;;;;;;;;;;;29.14;44.48;96309.81;5074935;28;19919;-28
2022/08/27 04:00:23;;;;;;;;;;;;;;;29.11;44.87;96302.53;5075255;28;19995;-29
2022/08/27 04:02:49;;;;;;;;;;;;;;;29.07;44.73;96308.47;5074799;28;19999;-28
2022/08/27 04:05:14;;;;;;;;;;;;;;;29.02;44.80;96305.88;5074850;28;20043;-28
2022/08/27 04:07:40;;;;;;;;;;;;;;;29.19;44.44;96311.66;5075144;28;19915;-28
2022/08/27 04:10:06;;;;;;;;;;;;;;;29.20;44.74;96311.13;5074806;28;19915;-28
2022/08/27 04:12:31;;;;;;;;;;;;;;;29.15;44.78;96305.72;5075037;28;20007;-28
2022/08/27 04:14:57;;;;;;;;;;;;;;;29.08;45.04;96312.00;5074812;28;19989;-28
2022/08/27 04:17:22;;;;;;;;;;;;;;;29.10;44.96;96315.00;5074641;28;19960;-28
2022/08/27 04:19:49;;;;;;;;;;;;;;;29.06;45.58;96311.81;5074705;28;20381;-28
2022/08/27 04:22:15;;;;;;;;;;;;;;;29.12;45.13;96318.00;5074500;28;19915;-28
2022/08/27 04:24:41;;;;;;;;;;;;;;;29.04;45.23;96320.03;5074596;28;19908;-28
2022/08/27 04:27:07;;;;;;;;;;;;;;;29.12;45.14;96309.63;5074522;28;19915;-28
2022/08/27 04:29:33;;;;;;;;;;;;;;;29.15;45.22;96322.47;5074372;28;19942;-28
2022/08/27 04:31:59;;;;;;;;;;;;;;;29.14;45.05;96316.16;5074073;28;20002;-28
2022/08/27 04:34:24;;;;;;;;;;;;;;;29.15;45.05;96323.22;5074381;28;19943;-29
2022/08/27 04:36:50;;;;;;;;;;;;;;;29.13;45.38;96319.50;5074314;28;19953;-28
2022/08/27 04:39:15;;;;;;;;;;;;;;;29.11;45.36;96336.78;5074386;28;19924;-28
2022/08/27 04:41:41;;;;;;;;;;;;;;;29.15;45.57;96334.41;5074164;28;19914;-28
2022/08/27 04:44:08;;;;;;;;;;;;;;;29.10;45.19;96334.56;5073985;28;19923;-28
2022/08/27 04:46:35;;;;;;;;;;;;;;;29.09;45.80;96338.63;5074222;28;19912;-28
2022/08/27 04:49:02;;;;;;;;;;;;;;;29.17;45.07;96347.81;5074144;28;20034;-29
2022/08/27 04:51:28;;;;;;;;;;;;;;;29.22;45.64;96336.44;5073527;28;20355;-28
2022/08/27 04:53:53;;;;;;;;;;;;;;;29.19;45.66;96343.13;5074228;28;19912;-28
2022/08/27 04:56:22;;;;;;;;;;;;;;;29.16;45.37;96347.06;5073889;28;19998;-28
2022/08/27 04:58:49;;;;;;;;;;;;;;;29.22;45.22;96344.09;5074197;28;20366;-29
2022/08/27 05:01:19;;;;;;;;;;;;;;;29.12;45.96;96338.28;5074107;28;19912;-28
2022/08/27 05:03:44;;;;;;;;;;;;;;;29.18;45.96;96344.44;5074105;28;19909;-28
2022/08/27 05:06:11;;;;;;;;;;;;;;;29.20;45.65;96344.63;5074120;28;19914;-28
2022/08/27 05:08:36;;;;;;;;;;;;;;;29.21;45.72;96345.38;5073787;28;19908;-28
2022/08/27 05:11:02;;;;;;;;;;;;;;;29.21;45.83;96346.13;5073803;28;19915;-28
2022/08/27 05:13:28;;;;;;;;;;;;;;;29.22;45.82;96346.88;5073872;28;19908;-28
2022/08/27 05:15:58;;;;;;;;;;;;;;;29.20;45.81;96347.44;5074055;28;19908;-28
2022/08/27 05:18:23;;;;;;;;;;;;;;;29.15;46.04;96351.16;5073480;28;19912;-29
2022/08/27 05:20:49;;;;;;;;;;;;;;;29.15;46.45;96356.00;5073971;28;19923;-28
2022/08/27 05:23:16;;;;;;;;;;;;;;;29.19;45.70;96348.72;5073869;28;20514;-28
2022/08/27 05:25:42;;;;;;;;;;;;;;;29.13;45.68;96355.78;5073617;28;19934;-28
2022/08/27 05:28:08;;;;;;;;;;;;;;;29.18;46.03;96354.84;5073698;28;19908;-28
2022/08/27 05:30:42;;;;;;;;;;;;;;;29.20;45.85;96361.38;5073813;28;19948;-28
2022/08/27 05:33:08;;;;;;;;;;;;;;;29.19;46.15;96359.16;5073533;28;19940;-29
2022/08/27 05:35:41;;;;;;;;;;;;;;;29.21;45.61;96359.34;5089545;28;20364;-30
2022/08/27 05:38:06;;;;;;;;;;;;;;;29.23;46.13;96365.88;5109824;28;20380;-28
2022/08/27 05:40:32;;;;;;;;;;;;;;;29.19;46.45;96370.31;5107527;28;19957;-28
2022/08/27 05:42:58;;;;;;;;;;;;;;;29.16;45.82;96360.28;5089749;28;19927;-29
2022/08/27 05:45:23;;;;;;;;;;;;;;;29.18;45.89;96363.97;5093861;28;19912;-29
2022/08/27 05:47:49;;;;;;;;;;;;;;;29.18;46.26;96371.63;5095740;28;19916;-29
2022/08/27 05:50:14;;;;;;;;;;;;;;;29.16;46.52;96379.81;5095934;28;19912;-28
2022/08/27 05:52:40;;;;;;;;;;;;;;;29.16;46.64;96372.19;5099968;28;20262;-28
2022/08/27 05:55:05;;;;;;;;;;;;;;;29.20;45.98;96378.16;5116119;28;20361;-28
2022/08/27 05:57:31;;;;;;;;;;;;;;;29.20;46.20;96369.03;5116065;28;19916;-28
2022/08/27 06:02:40;;;;;;;;;;;;;;;29.21;46.31;96373.31;5116261;28;20002;-28
2022/08/27 06:05:05;;;;;;;;;;;;;;;29.13;46.03;96372.53;5116049;28;20007;-28
2022/08/27 06:07:31;;;;;;;;;;;;;;;29.15;46.75;96375.53;5115897;28;19923;-28
2022/08/27 06:09:57;;;;;;;;;;;;;;;29.17;46.48;96372.94;5115656;28;19912;-28
2022/08/27 06:12:23;;;;;;;;;;;;;;;29.19;46.28;96370.31;5115836;28;19960;-28
2022/08/27 06:14:49;;;;;;;;;;;;;;;29.17;46.51;96372.94;5115822;28;20048;-28
2022/08/27 06:17:14;;;;;;;;;;;;;;;29.13;47.07;96373.28;5115689;28;20014;-29
2022/08/27 06:19:41;;;;;;;;;;;;;;;29.18;46.58;96371.63;5115612;28;19908;-28
2022/08/27 06:22:06;;;;;;;;;;;;;;;29.18;46.40;96382.78;5115405;28;19915;-28
2022/08/27 06:24:32;;;;;;;;;;;;;;;29.15;46.66;96375.53;5115724;28;19911;-29
2022/08/27 06:26:57;;;;;;;;;;;;;;;29.10;46.56;96377.19;5115760;28;20277;-28
2022/08/27 06:29:23;;;;;;;;;;;;;;;29.16;46.51;96368.66;5109672;28;20626;-29
2022/08/27 06:31:51;;;;;;;;;;;;;;;29.15;46.55;96369.94;5095193;28;20281;-28
2022/08/27 06:34:16;;;;;;;;;;;;;;;29.11;47.00;96372.34;5094888;28;20308;-29
2022/08/27 06:36:42;;;;;;;;;;;;;;;29.15;46.37;96373.50;5094924;28;19912;-28
2022/08/27 06:39:08;;;;;;;;;;;;;;;29.16;46.32;96371.44;5094921;28;20015;-28
2022/08/27 06:41:33;;;;;;;;;;;;;;;29.18;46.51;96377.19;5094778;28;20242;-28
2022/08/27 06:43:58;;;;;;;;;;;;;;;29.12;46.56;96371.06;5092981;28;19920;-27
2022/08/27 06:46:25;;;;;;;;;;;;;;;29.12;46.62;96371.06;5094475;28;19916;-28
2022/08/27 06:48:51;;;;;;;;;;;;;;;29.12;46.52;96382.22;5094597;28;20030;-28
2022/08/27 06:51:25;;;;;;;;;;;;;;;29.16;46.73;96382.63;5094668;28;19965;-29
2022/08/27 06:53:51;;;;;;;;;;;;;;;29.14;46.74;96380.38;5094786;28;19919;-28
2022/08/27 06:56:17;;;;;;;;;;;;;;;29.14;46.67;96385.22;5094054;28;19919;-28
2022/08/27 06:58:42;;;;;;;;;;;;;;;29.11;46.79;96380.72;5094242;28;19916;-28
2022/08/27 07:01:19;;;;;;;;;;;;;;;29.14;46.62;96390.78;5094619;28;19916;-28
2022/08/27 07:03:44;;;;;;;;;;;;;;;29.10;46.94;96385.56;5094417;28;19916;-28
2022/08/27 07:06:11;;;;;;;;;;;;;;;29.13;46.19;96397.69;5094314;28;20270;-28
2022/08/27 07:08:38;;;;;;;;;;;;;;;29.13;46.57;96394.88;5094345;28;20006;-28
2022/08/27 07:11:03;;;;;;;;;;;;;;;29.09;46.85;96400.06;5094108;28;20412;-30
2022/08/27 07:13:29;;;;;;;;;;;;;;;29.15;46.62;96404.22;5094302;28;19947;-30
2022/08/27 07:15:55;;;;;;;;;;;;;;;29.15;46.39;96397.88;5076158;28;19994;-28
2022/08/27 07:18:21;;;;;;;;;;;;;;;29.05;46.79;96405.28;5075783;28;19966;-27
2022/08/27 07:20:47;;;;;;;;;;;;;;;29.10;46.45;96401.56;5094347;28;19939;-29
2022/08/27 07:23:12;;;;;;;;;;;;;;;29.08;46.73;96401.38;5093960;28;20417;-28
2022/08/27 07:25:40;;;;;;;;;;;;;;;29.06;46.85;96401.91;5094139;28;20281;-28
2022/08/27 07:28:05;;;;;;;;;;;;;;;29.07;46.62;96406.19;5093956;28;19942;-29
2022/08/27 07:30:31;;;;;;;;;;;;;;;29.12;46.48;96408.09;5109188;28;20336;-28
2022/08/27 07:32:56;;;;;;;;;;;;;;;29.11;46.69;96405.84;5114326;28;19914;-28
2022/08/27 07:35:21;;;;;;;;;;;;;;;29.09;46.51;96417.56;5113907;28;20653;-28
2022/08/27 07:37:47;;;;;;;;;;;;;;;28.92;46.82;96409.69;5113712;28;19959;-28
2022/08/27 07:40:13;;;;;;;;;;;;;;;28.92;46.89;96408.94;5114247;28;20230;-28
2022/08/27 07:45:23;;;;;;;;;;;;;;;29.01;46.61;96416.03;5114028;28;19964;-28
2022/08/27 07:47:49;;;;;;;;;;;;;;;29.00;47.06;96414.56;5113938;28;19912;-28
2022/08/27 07:50:15;;;;;;;;;;;;;;;29.04;46.41;96410.13;5113952;28;19912;-28
2022/08/27 07:52:42;;;;;;;;;;;;;;;29.06;46.48;96410.28;5114102;28;19918;-28
2022/08/27 07:55:09;;;;;;;;;;;;;;;29.06;46.46;96412.34;5113841;28;20443;-30
2022/08/27 07:57:34;;;;;;;;;;;;;;;28.93;46.55;96422.31;5113856;28;19915;-30
2022/08/27 07:59:59;;;;;;;;;;;;;;;29.01;46.70;96416.78;5091242;28;20351;-28
2022/08/27 08:02:26;;;;;;;;;;;;;;;29.05;46.31;96427.63;5092843;28;19958;-29
2022/08/27 08:04:51;;;;;;;;;;;;;;;29.10;46.08;96423.91;5077010;28;19961;-29
2022/08/27 08:07:17;;;;;;;;;;;;;;;29.12;45.77;96427.66;5085437;28;20006;-28
2022/08/27 08:09:42;;;;;;;;;;;;;;;29.10;45.91;96424.66;5088613;28;20057;-28
2022/08/27 08:12:07;;;;;;;;;;;;;;;29.07;46.12;96419.41;5082110;28;19913;-28
2022/08/27 08:14:33;;;;;;;;;;;;;;;29.00;46.55;96431.31;5072462;28;20362;-29
2022/08/27 08:17:00;;;;;;;;;;;;;;;29.05;46.10;96424.81;5072620;28;20400;-28
2022/08/27 08:19:26;;;;;;;;;;;;;;;29.06;46.18;96429.09;5072745;28;19912;-28
2022/08/27 08:21:52;;;;;;;;;;;;;;;29.02;46.29;96428.72;5054083;28;20354;-28
2022/08/27 08:24:18;;;;;;;;;;;;;;;29.04;46.20;96431.72;5072269;28;19912;-28
2022/08/27 08:26:43;;;;;;;;;;;;;;;29.05;45.88;96424.81;5072425;28;19919;-28
2022/08/27 08:29:09;;;;;;;;;;;;;;;28.84;46.68;96427.66;5080142;28;19956;-28
2022/08/27 08:31:34;;;;;;;;;;;;;;;28.92;46.62;96426.44;5113321;28;19990;-28
2022/08/27 08:34:00;;;;;;;;;;;;;;;29.04;46.32;96429.66;5112795;28;19916;-28
2022/08/27 08:36:25;;;;;;;;;;;;;;;29.07;46.10;96425.00;5091097;28;20336;-28
2022/08/27 08:38:50;;;;;;;;;;;;;;;29.05;46.16;96433.19;5088913;28;19961;-28
2022/08/27 08:41:19;;;;;;;;;;;;;;;29.08;45.88;96432.09;5072365;28;19973;-28
2022/08/27 08:43:50;;;;;;;;;;;;;;;29.02;46.14;96429.47;5070162;28;19920;-29
2022/08/27 08:46:31;;;;;;;;;;;;;;;29.05;46.01;96427.63;5071936;28;19978;-28
2022/08/27 08:49:00;;;;;;;;;;;;;;;28.77;46.94;96437.47;5089657;28;19916;-29
2022/08/27 08:51:30;;;;;;;;;;;;;;;28.68;46.75;96435.19;5092291;28;19908;-28
2022/08/27 08:54:07;;;;;;;;;;;;;;;28.71;47.42;96436.88;5092000;28;20285;-28
2022/08/27 08:56:40;;;;;;;;;;;;;;;28.93;46.84;96427.91;5073277;28;19916;-28
2022/08/27 08:59:08;;;;;;;;;;;;;;;28.94;45.96;96432.19;5089593;28;19973;-28
2022/08/27 09:01:34;;;;;;;;;;;;;;;28.96;46.35;96437.22;5090645;28;19934;-28
2022/08/27 09:04:02;;;;;;;;;;;;;;;28.86;47.00;96428.63;5090322;28;20358;-28
2022/08/27 09:06:57;;;;;;;;;;;;;;;28.95;46.19;96430.16;5072302;28;19919;-29
2022/08/27 09:09:26;;;;;;;;;;;;;;;28.93;46.60;96427.91;5062250;28;20320;-30
2022/08/27 09:11:58;;;;;;;;;;;;;;;29.03;46.28;96430.22;5070960;28;20331;-28
2022/08/27 09:14:33;;;;;;;;;;;;;;;29.04;45.88;96428.91;5071644;28;19981;-28
2022/08/27 09:17:02;;;;;;;;;;;;;;;29.03;45.99;96435.78;5071587;28;20281;-29
2022/08/27 09:19:27;;;;;;;;;;;;;;;28.92;46.17;96431.28;5053744;28;20262;-28
2022/08/27 09:21:58;;;;;;;;;;;;;;;28.89;46.20;96421.19;5071491;28;19930;-28
2022/08/27 09:24:33;;;;;;;;;;;;;;;28.94;46.27;96423.06;5071900;28;19978;-30
2022/08/27 09:26:58;;;;;;;;;;;;;;;29.04;46.12;96431.72;5071832;28;19923;-29
2022/08/27 09:29:25;;;;;;;;;;;;;;;28.98;46.43;96420.69;5071849;28;19912;-28
2022/08/27 09:31:58;;;;;;;;;;;;;;;28.86;46.68;96425.81;5071733;28;19916;-29
2022/08/27 09:34:26;;;;;;;;;;;;;;;28.99;45.88;96427.75;5071169;28;19926;-29
2022/08/27 09:36:59;;;;;;;;;;;;;;;28.88;46.56;96426.03;5071631;28;19923;-28
2022/08/27 09:39:32;;;;;;;;;;;;;;;28.88;46.35;96426.03;5071701;28;20386;-28
2022/08/27 09:41:58;;;;;;;;;;;;;;;28.82;46.29;96422.63;5071499;28;19912;-28
2022/08/27 09:44:24;;;;;;;;;;;;;;;28.90;46.32;96417.13;5090544;28;20254;-28
2022/08/27 09:46:58;;;;;;;;;;;;;;;28.59;46.58;96416.13;5095327;28;20319;-28
2022/08/27 09:49:23;;;;;;;;;;;;;;;28.78;46.05;96416.66;5095811;28;19911;-28
2022/08/27 09:51:50;;;;;;;;;;;;;;;29.01;45.39;96416.03;5112237;28;20321;-28
2022/08/27 09:54:29;;;;;;;;;;;;;;;29.08;45.27;96406.94;5112067;28;20060;-28
2022/08/27 09:56:56;;;;;;;;;;;;;;;29.11;45.40;96409.41;5111645;28;19915;-28
2022/08/27 09:59:24;;;;;;;;;;;;;;;29.07;45.34;96414.56;5111668;28;19912;-28
2022/08/27 10:01:49;;;;;;;;;;;;;;;29.04;45.55;96403.78;5104993;28;19973;-29
2022/08/27 10:04:16;;;;;;;;;;;;;;;28.93;45.51;96411.16;5091579;28;19958;-28
2022/08/27 10:06:46;;;;;;;;;;;;;;;28.98;45.39;96403.19;5073370;28;19915;-28
2022/08/27 10:09:16;;;;;;;;;;;;;;;29.03;45.51;96410.66;5091596;28;19985;-29
2022/08/27 10:11:57;;;;;;;;;;;;;;;28.97;45.27;96415.66;5091360;28;19908;-28
2022/08/27 10:14:30;;;;;;;;;;;;;;;29.00;45.38;96406.91;5091612;28;19916;-27
2022/08/27 10:17:10;;;;;;;;;;;;;;;29.00;45.07;96406.16;5091759;28;19918;-28
2022/08/27 10:19:53;;;;;;;;;;;;;;;29.03;45.03;96407.88;5091292;28;19908;-30
2022/08/27 10:22:30;;;;;;;;;;;;;;;29.00;45.03;96392.97;5091411;28;19908;-28
2022/08/27 10:25:01;;;;;;;;;;;;;;;29.00;45.16;96392.22;5073344;28;19916;-28
2022/08/27 10:27:37;;;;;;;;;;;;;;;28.99;45.12;96397.06;5073095;28;20003;-27
2022/08/27 10:30:06;;;;;;;;;;;;;;;29.00;45.20;96403.38;5091320;28;20376;-28
2022/08/27 10:32:43;;;;;;;;;;;;;;;29.01;45.24;96399.28;5094586;28;20030;-28
2022/08/27 10:35:12;;;;;;;;;;;;;;;28.96;45.12;96403.72;5095090;28;20459;-28
2022/08/27 10:37:37;;;;;;;;;;;;;;;29.01;45.19;96418.84;5095263;28;20357;-29
2022/08/27 10:40:07;;;;;;;;;;;;;;;28.76;46.03;96413.66;5115295;28;20011;-28
2022/08/27 10:42:48;;;;;;;;;;;;;;;28.80;46.09;96407.75;5113270;28;19943;-28
2022/08/27 10:45:28;;;;;;;;;;;;;;;28.85;45.80;96402.00;5115140;28;19937;-28
2022/08/27 10:47:53;;;;;;;;;;;;;;;28.75;45.69;96412.16;5115007;28;19912;-29
2022/08/27 10:50:19;;;;;;;;;;;;;;;28.70;45.83;96432.56;5115159;28;20349;-28
2022/08/27 10:52:49;;;;;;;;;;;;;;;28.50;47.16;96436.16;5115181;28;19907;-28
2022/08/27 10:55:17;;;;;;;;;;;;;;;28.61;46.76;96441.44;5114643;28;19915;-28
2022/08/27 10:57:58;;;;;;;;;;;;;;;28.52;46.98;96433.56;5114934;28;19915;-27
2022/08/27 11:00:27;;;;;;;;;;;;;;;28.48;47.41;96439.50;5114979;28;19907;-29
2022/08/27 11:02:55;;;;;;;;;;;;;;;28.47;47.27;96462.34;5114908;28;19914;-28
2022/08/27 11:05:27;;;;;;;;;;;;;;;28.59;46.68;96466.34;5114963;28;19918;-28
2022/08/27 11:07:54;;;;;;;;;;;;;;;28.63;46.56;96461.19;5114699;28;19908;-28
2022/08/27 11:10:20;;;;;;;;;;;;;;;28.70;46.05;96477.22;5114814;28;19911;-28
2022/08/27 11:12:47;;;;;;;;;;;;;;;28.73;45.78;96475.38;5114726;28;19933;-28
2022/08/27 11:15:21;;;;;;;;;;;;;;;28.73;45.72;96478.94;5114706;28;19907;-28
2022/08/27 11:18:05;;;;;;;;;;;;;;;28.64;45.83;96467.50;5114580;28;19916;-29
2022/08/27 11:20:30;;;;;;;;;;;;;;;28.71;45.81;96444.50;5114321;28;19954;-28
2022/08/27 11:23:00;;;;;;;;;;;;;;;28.66;45.69;96443.34;5114389;28;19951;-28
2022/08/27 11:25:45;;;;;;;;;;;;;;;28.63;45.91;96436.06;5101432;28;19962;-28
2022/08/27 11:28:11;;;;;;;;;;;;;;;28.63;45.85;96452.06;5061408;28;19916;-28
2022/08/27 11:30:50;;;;;;;;;;;;;;;28.65;45.94;96450.22;5061057;28;19934;-28
2022/08/27 11:33:36;;;;;;;;;;;;;;;28.60;45.83;96468.59;5060521;28;19927;-28
2022/08/27 11:36:04;;;;;;;;;;;;;;;28.62;46.08;96447.78;5028748;28;19916;-29
2022/08/27 11:38:29;;;;;;;;;;;;;;;28.62;46.02;96448.53;5059049;28;20246;-28
2022/08/27 11:41:03;;;;;;;;;;;;;;;28.70;46.09;96437.41;5053666;28;19916;-29
2022/08/27 11:43:31;;;;;;;;;;;;;;;28.68;46.11;96431.66;5049984;28;19920;-29
2022/08/27 11:45:59;;;;;;;;;;;;;;;28.74;45.57;96432.22;5052100;28;19916;-30
2022/08/27 11:48:29;;;;;;;;;;;;;;;28.77;45.72;96431.13;5037750;28;19916;-28
2022/08/27 11:51:02;;;;;;;;;;;;;;;28.74;45.96;96432.97;5052190;28;19927;-28
2022/08/27 11:53:50;;;;;;;;;;;;;;;28.72;45.83;96435.56;5052023;28;20278;-28
2022/08/27 11:56:34;;;;;;;;;;;;;;;28.77;45.65;96436.72;5045510;28;19926;-28
2022/08/27 11:59:19;;;;;;;;;;;;;;;28.79;45.95;96437.72;5062225;28;19920;-28
2022/08/27 12:01:45;;;;;;;;;;;;;;;28.79;45.75;96423.75;5059218;28;19952;-29
2022/08/27 12:04:22;;;;;;;;;;;;;;;28.80;46.13;96416.88;5056268;28;20503;-28
2022/08/27 12:07:00;;;;;;;;;;;;;;;28.69;47.03;96408.75;5043005;28;20304;-29
2022/08/27 12:09:26;;;;;;;;;;;;;;;28.74;46.18;96409.91;5062488;28;19994;-28
2022/08/27 12:12:00;;;;;;;;;;;;;;;28.81;46.98;96412.00;5053220;28;20373;-29
2022/08/27 12:14:41;;;;;;;;;;;;;;;28.87;46.71;96410.56;5037466;28;20353;-28
2022/08/27 12:17:07;;;;;;;;;;;;;;;28.78;46.58;96404.72;5052447;28;19916;-28
2022/08/27 12:19:59;;;;;;;;;;;;;;;28.68;46.87;96401.69;5051871;28;19966;-29
2022/08/27 12:22:28;;;;;;;;;;;;;;;28.83;46.84;96399.00;5036258;28;19967;-29
2022/08/27 12:24:57;;;;;;;;;;;;;;;28.90;46.64;96394.78;5061574;28;21883;-29
2022/08/27 12:27:33;;;;;;;;;;;;;;;28.76;46.86;96388.53;5061131;28;20259;-28
2022/08/27 12:30:18;;;;;;;;;;;;;;;28.73;47.69;96381.25;5045352;28;20353;-28
2022/08/27 12:32:45;;;;;;;;;;;;;;;28.65;47.81;96374.13;5060611;28;19920;-28
2022/08/27 12:35:34;;;;;;;;;;;;;;;28.73;47.70;96363.75;5060709;28;20401;-28
2022/08/27 12:38:19;;;;;;;;;;;;;;;28.72;47.49;96365.81;5052235;28;19956;-28
2022/08/27 12:40:45;;;;;;;;;;;;;;;28.70;47.44;96351.66;5051713;28;19927;-29
2022/08/27 12:43:17;;;;;;;;;;;;;;;28.81;47.10;96342.97;5049206;28;19928;-28
2022/08/27 12:45:46;;;;;;;;;;;;;;;28.84;46.84;96336.31;5051501;28;19920;-28
2022/08/27 12:48:11;;;;;;;;;;;;;;;28.89;46.19;96354.94;5051100;28;20038;-27
2022/08/27 12:50:37;;;;;;;;;;;;;;;28.71;46.88;96341.22;5051060;28;19922;-28
2022/08/27 12:53:03;;;;;;;;;;;;;;;28.81;46.83;96348.56;5050542;28;19928;-30
2022/08/27 12:55:41;;;;;;;;;;;;;;;28.91;46.32;96341.19;5050444;28;20258;-28
2022/08/27 12:58:15;;;;;;;;;;;;;;;28.79;46.85;96356.75;5050762;28;19921;-28